sensor_id;sensor_type;location;lat;lon;timestamp;temperature;humidity
24560;DHT22;12727;49.934;8.656;2023-09-08T00:02:18;15.90;99.90
24560;DHT22;12727;49.934;8.656;2023-09-08T00:04:44;15.90;99.90
24560;DHT22;12727;49.934;8.656;2023-09-08T00:07:09;16.00;99.90
24560;DHT22;12727;49.934;8.656;2023-09-08T00:09:35;16.10;99.90
24560;DHT22;12727;49.934;8.656;2023-09-08T00:12:00;16.20;99.90
24560;DHT22;12727;49.934;8.656;2023-09-08T00:14:26;16.30;99.90
24560;DHT22;12727;49.934;8.656;2023-09-08T00:16:52;16.40;99.90
24560;DHT22;12727;49.934;8.656;2023-09-08T00:19:21;16.50;99.90
24560;DHT22;12727;49.934;8.656;2023-09-08T00:21:48;16.60;99.90
24560;DHT22;12727;49.934;8.656;2023-09-08T00:24:14;16.70;99.90
24560;DHT22;12727;49.934;8.656;2023-09-08T00:26:39;16.80;99.90
24560;DHT22;12727;49.934;8.656;2023-09-08T00:29:05;16.80;99.90
24560;DHT22;12727;49.934;8.656;2023-09-08T00:31:31;16.80;99.90
24560;DHT22;12727;49.934;8.656;2023-09-08T00:33:56;16.90;99.90
24560;DHT22;12727;49.934;8.656;2023-09-08T00:36:22;16.90;99.90
24560;DHT22;12727;49.934;8.656;2023-09-08T00:38:47;17.00;99.90
24560;DHT22;12727;49.934;8.656;2023-09-08T00:41:13;17.00;99.90
24560;DHT22;12727;49.934;8.656;2023-09-08T00:43:39;16.90;99.90
24560;DHT22;12727;49.934;8.656;2023-09-08T00:46:04;17.00;99.90
24560;DHT22;12727;49.934;8.656;2023-09-08T00:48:31;16.90;99.90
24560;DHT22;12727;49.934;8.656;2023-09-08T00:50:57;16.90;99.90
24560;DHT22;12727;49.934;8.656;2023-09-08T00:53:23;16.90;99.90
24560;DHT22;12727;49.934;8.656;2023-09-08T00:55:49;16.90;99.90
24560;DHT22;12727;49.934;8.656;2023-09-08T00:58:15;16.90;99.90
24560;DHT22;12727;49.934;8.656;2023-09-08T01:00:41;16.90;99.90
24560;DHT22;12727;49.934;8.656;2023-09-08T01:03:06;16.90;99.90
24560;DHT22;12727;49.934;8.656;2023-09-08T01:05:32;16.90;99.90
24560;DHT22;12727;49.934;8.656;2023-09-08T01:07:59;16.80;99.90
24560;DHT22;12727;49.934;8.656;2023-09-08T01:10:25;16.60;99.90
24560;DHT22;12727;49.934;8.656;2023-09-08T01:12:51;16.60;99.90
24560;DHT22;12727;49.934;8.656;2023-09-08T01:15:16;16.40;99.90
24560;DHT22;12727;49.934;8.656;2023-09-08T01:17:42;16.30;99.90
24560;DHT22;12727;49.934;8.656;2023-09-08T01:20:35;16.20;99.90
24560;DHT22;12727;49.934;8.656;2023-09-08T01:23:21;16.10;99.90
24560;DHT22;12727;49.934;8.656;2023-09-08T01:26:02;16.00;99.90
24560;DHT22;12727;49.934;8.656;2023-09-08T01:28:30;16.00;99.90
24560;DHT22;12727;49.934;8.656;2023-09-08T01:30:57;16.00;99.90
24560;DHT22;12727;49.934;8.656;2023-09-08T01:33:23;16.10;99.90
24560;DHT22;12727;49.934;8.656;2023-09-08T01:35:49;16.10;99.90
24560;DHT22;12727;49.934;8.656;2023-09-08T01:38:21;16.20;99.90
24560;DHT22;12727;49.934;8.656;2023-09-08T01:40:48;16.30;99.90
24560;DHT22;12727;49.934;8.656;2023-09-08T01:43:13;16.50;99.90
24560;DHT22;12727;49.934;8.656;2023-09-08T01:45:39;16.60;99.90
24560;DHT22;12727;49.934;8.656;2023-09-08T01:48:04;16.60;99.90
24560;DHT22;12727;49.934;8.656;2023-09-08T01:50:30;16.60;99.90
24560;DHT22;12727;49.934;8.656;2023-09-08T01:52:56;16.60;99.90
24560;DHT22;12727;49.934;8.656;2023-09-08T01:55:21;16.70;99.90
24560;DHT22;12727;49.934;8.656;2023-09-08T01:57:47;16.70;99.90
24560;DHT22;12727;49.934;8.656;2023-09-08T02:00:13;16.70;99.90
24560;DHT22;12727;49.934;8.656;2023-09-08T02:02:39;16.70;99.90
24560;DHT22;12727;49.934;8.656;2023-09-08T02:05:05;16.70;99.90
24560;DHT22;12727;49.934;8.656;2023-09-08T02:07:31;16.70;99.90
24560;DHT22;12727;49.934;8.656;2023-09-08T02:09:56;16.70;99.90
24560;DHT22;12727;49.934;8.656;2023-09-08T02:12:22;16.70;99.90
24560;DHT22;12727;49.934;8.656;2023-09-08T02:14:48;16.70;99.90
24560;DHT22;12727;49.934;8.656;2023-09-08T02:17:13;16.60;99.90
24560;DHT22;12727;49.934;8.656;2023-09-08T02:19:39;16.50;99.90
24560;DHT22;12727;49.934;8.656;2023-09-08T02:22:04;16.40;99.90
24560;DHT22;12727;49.934;8.656;2023-09-08T02:24:30;16.40;99.90
24560;DHT22;12727;49.934;8.656;2023-09-08T02:26:55;16.30;99.90
24560;DHT22;12727;49.934;8.656;2023-09-08T02:29:21;16.30;99.90
24560;DHT22;12727;49.934;8.656;2023-09-08T02:31:48;16.20;99.90
24560;DHT22;12727;49.934;8.656;2023-09-08T02:34:13;16.10;99.90
24560;DHT22;12727;49.934;8.656;2023-09-08T02:36:39;16.00;99.90
24560;DHT22;12727;49.934;8.656;2023-09-08T02:39:05;16.00;99.90
24560;DHT22;12727;49.934;8.656;2023-09-08T02:41:31;15.90;99.90
24560;DHT22;12727;49.934;8.656;2023-09-08T02:43:56;15.90;99.90
24560;DHT22;12727;49.934;8.656;2023-09-08T02:46:22;15.80;99.90
24560;DHT22;12727;49.934;8.656;2023-09-08T02:48:47;15.80;99.90
24560;DHT22;12727;49.934;8.656;2023-09-08T02:51:13;15.70;99.90
24560;DHT22;12727;49.934;8.656;2023-09-08T02:53:39;15.70;99.90
24560;DHT22;12727;49.934;8.656;2023-09-08T02:56:04;15.60;99.90
24560;DHT22;12727;49.934;8.656;2023-09-08T02:58:31;15.60;99.90
24560;DHT22;12727;49.934;8.656;2023-09-08T03:01:18;15.50;99.90
24560;DHT22;12727;49.934;8.656;2023-09-08T03:03:47;15.50;99.90
24560;DHT22;12727;49.934;8.656;2023-09-08T03:06:14;15.50;99.90
24560;DHT22;12727;49.934;8.656;2023-09-08T03:08:40;15.60;99.90
24560;DHT22;12727;49.934;8.656;2023-09-08T03:11:07;15.60;99.90
24560;DHT22;12727;49.934;8.656;2023-09-08T03:13:34;15.60;99.90
24560;DHT22;12727;49.934;8.656;2023-09-08T03:16:06;15.60;99.90
24560;DHT22;12727;49.934;8.656;2023-09-08T03:18:36;15.60;99.90
24560;DHT22;12727;49.934;8.656;2023-09-08T03:21:02;15.60;99.90
24560;DHT22;12727;49.934;8.656;2023-09-08T03:23:37;15.70;99.90
24560;DHT22;12727;49.934;8.656;2023-09-08T03:26:03;15.70;99.90
24560;DHT22;12727;49.934;8.656;2023-09-08T03:28:28;15.70;99.90
24560;DHT22;12727;49.934;8.656;2023-09-08T03:30:54;15.70;99.90
24560;DHT22;12727;49.934;8.656;2023-09-08T03:33:19;15.70;99.90
24560;DHT22;12727;49.934;8.656;2023-09-08T03:35:45;15.60;99.90
24560;DHT22;12727;49.934;8.656;2023-09-08T03:38:11;15.60;99.90
24560;DHT22;12727;49.934;8.656;2023-09-08T03:40:36;15.60;99.90
24560;DHT22;12727;49.934;8.656;2023-09-08T03:43:03;15.60;99.90
24560;DHT22;12727;49.934;8.656;2023-09-08T03:45:29;15.60;99.90
24560;DHT22;12727;49.934;8.656;2023-09-08T03:47:54;15.60;99.90
24560;DHT22;12727;49.934;8.656;2023-09-08T03:50:20;15.70;99.90
24560;DHT22;12727;49.934;8.656;2023-09-08T03:52:45;15.70;99.90
24560;DHT22;12727;49.934;8.656;2023-09-08T03:55:11;15.70;99.90
24560;DHT22;12727;49.934;8.656;2023-09-08T03:57:37;15.70;99.90
24560;DHT22;12727;49.934;8.656;2023-09-08T04:00:03;15.80;99.90
24560;DHT22;12727;49.934;8.656;2023-09-08T04:02:30;15.80;99.90
24560;DHT22;12727;49.934;8.656;2023-09-08T04:04:56;15.80;99.90
24560;DHT22;12727;49.934;8.656;2023-09-08T04:07:21;15.80;99.90
24560;DHT22;12727;49.934;8.656;2023-09-08T04:09:47;15.90;99.90
24560;DHT22;12727;49.934;8.656;2023-09-08T04:12:12;15.90;99.90
24560;DHT22;12727;49.934;8.656;2023-09-08T04:14:38;15.90;99.90
24560;DHT22;12727;49.934;8.656;2023-09-08T04:17:03;15.90;99.90
24560;DHT22;12727;49.934;8.656;2023-09-08T04:19:29;15.90;99.90
24560;DHT22;12727;49.934;8.656;2023-09-08T04:21:54;15.90;99.90
24560;DHT22;12727;49.934;8.656;2023-09-08T04:24:20;16.00;99.90
24560;DHT22;12727;49.934;8.656;2023-09-08T04:26:46;16.00;99.90
24560;DHT22;12727;49.934;8.656;2023-09-08T04:29:11;16.00;99.90
24560;DHT22;12727;49.934;8.656;2023-09-08T04:31:37;16.10;99.90
24560;DHT22;12727;49.934;8.656;2023-09-08T04:34:02;16.10;99.90
24560;DHT22;12727;49.934;8.656;2023-09-08T04:36:28;16.10;99.90
24560;DHT22;12727;49.934;8.656;2023-09-08T04:38:55;16.10;99.90
24560;DHT22;12727;49.934;8.656;2023-09-08T04:41:21;16.20;99.90
24560;DHT22;12727;49.934;8.656;2023-09-08T04:43:47;16.20;99.90
24560;DHT22;12727;49.934;8.656;2023-09-08T04:46:12;16.10;99.90
24560;DHT22;12727;49.934;8.656;2023-09-08T04:48:38;16.10;99.90
24560;DHT22;12727;49.934;8.656;2023-09-08T04:51:04;16.00;99.90
24560;DHT22;12727;49.934;8.656;2023-09-08T04:53:29;15.90;99.90
24560;DHT22;12727;49.934;8.656;2023-09-08T04:55:55;16.00;99.90
24560;DHT22;12727;49.934;8.656;2023-09-08T04:58:20;16.00;99.90
24560;DHT22;12727;49.934;8.656;2023-09-08T05:00:46;16.00;99.90
24560;DHT22;12727;49.934;8.656;2023-09-08T05:03:11;16.00;99.90
24560;DHT22;12727;49.934;8.656;2023-09-08T05:05:37;16.00;99.90
24560;DHT22;12727;49.934;8.656;2023-09-08T05:08:04;16.10;99.90
24560;DHT22;12727;49.934;8.656;2023-09-08T05:10:29;16.10;99.90
24560;DHT22;12727;49.934;8.656;2023-09-08T05:12:55;16.10;99.90
24560;DHT22;12727;49.934;8.656;2023-09-08T05:15:21;16.10;99.90
24560;DHT22;12727;49.934;8.656;2023-09-08T05:17:47;16.10;99.90
24560;DHT22;12727;49.934;8.656;2023-09-08T05:20:12;16.10;99.90
24560;DHT22;12727;49.934;8.656;2023-09-08T05:22:38;16.20;99.90
24560;DHT22;12727;49.934;8.656;2023-09-08T05:25:04;16.20;99.90
24560;DHT22;12727;49.934;8.656;2023-09-08T05:27:29;16.20;99.90
24560;DHT22;12727;49.934;8.656;2023-09-08T05:29:56;16.20;99.90
24560;DHT22;12727;49.934;8.656;2023-09-08T05:32:22;16.20;99.90
24560;DHT22;12727;49.934;8.656;2023-09-08T05:34:47;16.20;99.90
24560;DHT22;12727;49.934;8.656;2023-09-08T05:37:13;16.30;99.90
24560;DHT22;12727;49.934;8.656;2023-09-08T05:39:38;16.40;99.90
24560;DHT22;12727;49.934;8.656;2023-09-08T05:42:04;16.60;99.90
24560;DHT22;12727;49.934;8.656;2023-09-08T05:44:29;16.60;99.90
24560;DHT22;12727;49.934;8.656;2023-09-08T05:46:55;16.90;99.90
24560;DHT22;12727;49.934;8.656;2023-09-08T05:49:21;17.00;99.90
24560;DHT22;12727;49.934;8.656;2023-09-08T05:51:46;17.10;99.90
24560;DHT22;12727;49.934;8.656;2023-09-08T05:54:12;17.20;99.90
24560;DHT22;12727;49.934;8.656;2023-09-08T05:56:38;17.30;99.90
24560;DHT22;12727;49.934;8.656;2023-09-08T05:59:04;17.40;99.90
24560;DHT22;12727;49.934;8.656;2023-09-08T06:01:30;17.60;99.90
24560;DHT22;12727;49.934;8.656;2023-09-08T06:03:56;17.70;99.90
24560;DHT22;12727;49.934;8.656;2023-09-08T06:06:22;17.80;99.90
24560;DHT22;12727;49.934;8.656;2023-09-08T06:08:47;18.00;99.90
24560;DHT22;12727;49.934;8.656;2023-09-08T06:11:13;18.10;99.90
24560;DHT22;12727;49.934;8.656;2023-09-08T06:13:39;18.20;99.90
24560;DHT22;12727;49.934;8.656;2023-09-08T06:16:04;18.30;99.90
24560;DHT22;12727;49.934;8.656;2023-09-08T06:18:30;18.30;99.90
24560;DHT22;12727;49.934;8.656;2023-09-08T06:20:56;18.40;99.90
24560;DHT22;12727;49.934;8.656;2023-09-08T06:23:22;18.60;99.90
24560;DHT22;12727;49.934;8.656;2023-09-08T06:25:48;18.70;99.90
24560;DHT22;12727;49.934;8.656;2023-09-08T06:28:14;18.80;99.90
24560;DHT22;12727;49.934;8.656;2023-09-08T06:30:39;18.90;99.90
24560;DHT22;12727;49.934;8.656;2023-09-08T06:33:07;19.00;99.90
24560;DHT22;12727;49.934;8.656;2023-09-08T06:35:33;19.00;99.90
24560;DHT22;12727;49.934;8.656;2023-09-08T06:37:59;19.20;99.90
24560;DHT22;12727;49.934;8.656;2023-09-08T06:40:25;19.30;99.90
24560;DHT22;12727;49.934;8.656;2023-09-08T06:42:51;19.40;99.90
24560;DHT22;12727;49.934;8.656;2023-09-08T06:45:16;19.50;99.90
24560;DHT22;12727;49.934;8.656;2023-09-08T06:47:43;19.60;99.90
24560;DHT22;12727;49.934;8.656;2023-09-08T06:50:09;19.80;99.90
24560;DHT22;12727;49.934;8.656;2023-09-08T06:52:35;20.00;99.90
24560;DHT22;12727;49.934;8.656;2023-09-08T06:55:01;20.50;99.90
24560;DHT22;12727;49.934;8.656;2023-09-08T06:57:27;20.70;99.90
24560;DHT22;12727;49.934;8.656;2023-09-08T06:59:52;20.90;99.90
24560;DHT22;12727;49.934;8.656;2023-09-08T07:02:18;21.00;99.90
24560;DHT22;12727;49.934;8.656;2023-09-08T07:04:43;21.30;99.90
24560;DHT22;12727;49.934;8.656;2023-09-08T07:07:09;21.50;99.90
24560;DHT22;12727;49.934;8.656;2023-09-08T07:09:36;21.80;99.90
24560;DHT22;12727;49.934;8.656;2023-09-08T07:12:03;21.90;99.90
24560;DHT22;12727;49.934;8.656;2023-09-08T07:14:29;22.00;99.90
24560;DHT22;12727;49.934;8.656;2023-09-08T07:16:54;22.20;99.90
24560;DHT22;12727;49.934;8.656;2023-09-08T07:19:20;22.40;99.60
24560;DHT22;12727;49.934;8.656;2023-09-08T07:21:45;22.70;98.80
24560;DHT22;12727;49.934;8.656;2023-09-08T07:24:11;22.90;98.10
24560;DHT22;12727;49.934;8.656;2023-09-08T07:26:37;23.10;97.70
24560;DHT22;12727;49.934;8.656;2023-09-08T07:29:03;23.30;97.00
24560;DHT22;12727;49.934;8.656;2023-09-08T07:31:28;23.40;96.70
24560;DHT22;12727;49.934;8.656;2023-09-08T07:33:54;23.50;96.00
24560;DHT22;12727;49.934;8.656;2023-09-08T07:36:19;23.50;95.60
24560;DHT22;12727;49.934;8.656;2023-09-08T07:38:45;23.50;94.80
24560;DHT22;12727;49.934;8.656;2023-09-08T07:41:11;23.50;95.60
24560;DHT22;12727;49.934;8.656;2023-09-08T07:43:37;23.70;94.50
24560;DHT22;12727;49.934;8.656;2023-09-08T07:46:08;23.70;94.10
24560;DHT22;12727;49.934;8.656;2023-09-08T07:48:34;24.00;94.20
24560;DHT22;12727;49.934;8.656;2023-09-08T07:51:00;24.20;93.50
24560;DHT22;12727;49.934;8.656;2023-09-08T07:53:26;24.20;92.90
24560;DHT22;12727;49.934;8.656;2023-09-08T07:55:52;24.40;92.90
24560;DHT22;12727;49.934;8.656;2023-09-08T07:58:17;24.60;92.70
24560;DHT22;12727;49.934;8.656;2023-09-08T08:00:43;24.70;92.30
24560;DHT22;12727;49.934;8.656;2023-09-08T08:03:08;25.00;91.70
24560;DHT22;12727;49.934;8.656;2023-09-08T08:05:34;25.40;91.30
24560;DHT22;12727;49.934;8.656;2023-09-08T08:08:00;25.40;91.10
24560;DHT22;12727;49.934;8.656;2023-09-08T08:10:26;25.60;90.70
24560;DHT22;12727;49.934;8.656;2023-09-08T08:12:51;25.80;90.10
24560;DHT22;12727;49.934;8.656;2023-09-08T08:15:19;26.00;90.00
24560;DHT22;12727;49.934;8.656;2023-09-08T08:17:46;26.50;89.50
24560;DHT22;12727;49.934;8.656;2023-09-08T08:20:12;26.80;87.50
24560;DHT22;12727;49.934;8.656;2023-09-08T08:22:43;26.40;86.50
24560;DHT22;12727;49.934;8.656;2023-09-08T08:25:09;26.30;87.00
24560;DHT22;12727;49.934;8.656;2023-09-08T08:27:34;26.30;86.00
24560;DHT22;12727;49.934;8.656;2023-09-08T08:30:00;25.90;86.40
24560;DHT22;12727;49.934;8.656;2023-09-08T08:32:29;26.10;86.80
24560;DHT22;12727;49.934;8.656;2023-09-08T08:34:55;26.70;85.60
24560;DHT22;12727;49.934;8.656;2023-09-08T08:37:20;27.30;84.40
24560;DHT22;12727;49.934;8.656;2023-09-08T08:39:46;27.80;82.20
24560;DHT22;12727;49.934;8.656;2023-09-08T08:42:12;27.90;81.00
24560;DHT22;12727;49.934;8.656;2023-09-08T08:44:38;28.00;80.80
24560;DHT22;12727;49.934;8.656;2023-09-08T08:47:06;28.50;79.00
24560;DHT22;12727;49.934;8.656;2023-09-08T08:49:33;29.00;78.10
24560;DHT22;12727;49.934;8.656;2023-09-08T08:51:59;29.10;75.60
24560;DHT22;12727;49.934;8.656;2023-09-08T08:54:26;29.10;75.00
24560;DHT22;12727;49.934;8.656;2023-09-08T08:56:51;29.40;73.70
24560;DHT22;12727;49.934;8.656;2023-09-08T08:59:18;29.70;72.40
24560;DHT22;12727;49.934;8.656;2023-09-08T09:01:44;30.10;70.60
24560;DHT22;12727;49.934;8.656;2023-09-08T09:04:10;29.70;69.60
24560;DHT22;12727;49.934;8.656;2023-09-08T09:06:36;29.60;68.90
24560;DHT22;12727;49.934;8.656;2023-09-08T09:09:02;30.10;68.20
24560;DHT22;12727;49.934;8.656;2023-09-08T09:11:31;29.90;67.10
24560;DHT22;12727;49.934;8.656;2023-09-08T09:13:57;29.90;68.30
24560;DHT22;12727;49.934;8.656;2023-09-08T09:16:23;29.50;68.70
24560;DHT22;12727;49.934;8.656;2023-09-08T09:18:59;29.60;69.50
24560;DHT22;12727;49.934;8.656;2023-09-08T09:21:47;29.90;67.90
24560;DHT22;12727;49.934;8.656;2023-09-08T09:24:48;30.40;65.80
24560;DHT22;12727;49.934;8.656;2023-09-08T09:27:14;30.70;61.30
24560;DHT22;12727;49.934;8.656;2023-09-08T09:29:47;30.50;64.20
24560;DHT22;12727;49.934;8.656;2023-09-08T09:32:14;30.50;62.00
24560;DHT22;12727;49.934;8.656;2023-09-08T09:34:51;30.00;62.50
24560;DHT22;12727;49.934;8.656;2023-09-08T09:37:18;29.90;61.10
24560;DHT22;12727;49.934;8.656;2023-09-08T09:39:52;29.80;62.40
24560;DHT22;12727;49.934;8.656;2023-09-08T09:42:18;30.00;61.40
24560;DHT22;12727;49.934;8.656;2023-09-08T09:44:47;30.20;62.00
24560;DHT22;12727;49.934;8.656;2023-09-08T09:47:13;30.90;60.30
24560;DHT22;12727;49.934;8.656;2023-09-08T09:49:43;31.30;59.50
24560;DHT22;12727;49.934;8.656;2023-09-08T09:52:11;32.30;58.50
24560;DHT22;12727;49.934;8.656;2023-09-08T09:54:42;32.80;57.20
24560;DHT22;12727;49.934;8.656;2023-09-08T09:57:11;33.40;55.40
24560;DHT22;12727;49.934;8.656;2023-09-08T09:59:39;32.90;55.10
24560;DHT22;12727;49.934;8.656;2023-09-08T10:02:11;32.90;55.50
24560;DHT22;12727;49.934;8.656;2023-09-08T10:04:39;32.90;54.30
24560;DHT22;12727;49.934;8.656;2023-09-08T10:07:05;32.30;54.30
24560;DHT22;12727;49.934;8.656;2023-09-08T10:09:31;31.80;55.30
24560;DHT22;12727;49.934;8.656;2023-09-08T10:12:02;31.60;55.40
24560;DHT22;12727;49.934;8.656;2023-09-08T10:14:28;32.30;54.80
24560;DHT22;12727;49.934;8.656;2023-09-08T10:16:57;32.50;54.80
24560;DHT22;12727;49.934;8.656;2023-09-08T10:19:24;32.50;54.60
24560;DHT22;12727;49.934;8.656;2023-09-08T10:21:51;33.00;53.80
24560;DHT22;12727;49.934;8.656;2023-09-08T10:24:26;33.20;52.80
24560;DHT22;12727;49.934;8.656;2023-09-08T10:27:07;33.20;52.60
24560;DHT22;12727;49.934;8.656;2023-09-08T10:29:35;33.00;51.90
24560;DHT22;12727;49.934;8.656;2023-09-08T10:32:01;32.70;53.50
24560;DHT22;12727;49.934;8.656;2023-09-08T10:34:27;33.20;52.80
24560;DHT22;12727;49.934;8.656;2023-09-08T10:36:54;33.30;51.80
24560;DHT22;12727;49.934;8.656;2023-09-08T10:39:35;32.80;51.70
24560;DHT22;12727;49.934;8.656;2023-09-08T10:42:20;32.50;52.40
24560;DHT22;12727;49.934;8.656;2023-09-08T10:47:18;32.20;53.00
24560;DHT22;12727;49.934;8.656;2023-09-08T10:49:45;32.10;53.50
24560;DHT22;12727;49.934;8.656;2023-09-08T10:52:12;32.40;53.90
24560;DHT22;12727;49.934;8.656;2023-09-08T10:54:45;33.00;53.60
24560;DHT22;12727;49.934;8.656;2023-09-08T10:57:14;33.20;52.80
24560;DHT22;12727;49.934;8.656;2023-09-08T10:59:44;32.80;53.10
24560;DHT22;12727;49.934;8.656;2023-09-08T11:02:50;32.50;53.20
24560;DHT22;12727;49.934;8.656;2023-09-08T11:05:16;32.00;52.50
24560;DHT22;12727;49.934;8.656;2023-09-08T11:07:44;32.00;53.90
24560;DHT22;12727;49.934;8.656;2023-09-08T11:10:11;32.10;53.20
24560;DHT22;12727;49.934;8.656;2023-09-08T11:12:37;31.30;54.60
24560;DHT22;12727;49.934;8.656;2023-09-08T11:15:05;30.10;56.30
24560;DHT22;12727;49.934;8.656;2023-09-08T11:17:34;29.60;57.00
24560;DHT22;12727;49.934;8.656;2023-09-08T11:20:02;29.00;58.20
24560;DHT22;12727;49.934;8.656;2023-09-08T11:22:34;28.70;59.20
24560;DHT22;12727;49.934;8.656;2023-09-08T11:25:01;28.40;59.50
24560;DHT22;12727;49.934;8.656;2023-09-08T11:27:30;28.00;61.30
24560;DHT22;12727;49.934;8.656;2023-09-08T11:29:56;27.80;61.40
24560;DHT22;12727;49.934;8.656;2023-09-08T11:32:25;27.90;62.00
24560;DHT22;12727;49.934;8.656;2023-09-08T11:35:07;27.80;62.60
24560;DHT22;12727;49.934;8.656;2023-09-08T11:37:38;27.50;62.10
24560;DHT22;12727;49.934;8.656;2023-09-08T11:40:05;27.40;62.70
24560;DHT22;12727;49.934;8.656;2023-09-08T11:42:40;27.40;62.40
24560;DHT22;12727;49.934;8.656;2023-09-08T11:45:14;27.50;62.10
24560;DHT22;12727;49.934;8.656;2023-09-08T11:47:43;27.40;61.90
24560;DHT22;12727;49.934;8.656;2023-09-08T11:50:12;27.50;61.10
24560;DHT22;12727;49.934;8.656;2023-09-08T11:52:48;27.40;61.20
24560;DHT22;12727;49.934;8.656;2023-09-08T11:55:14;27.40;61.40
24560;DHT22;12727;49.934;8.656;2023-09-08T11:57:42;27.50;62.20
24560;DHT22;12727;49.934;8.656;2023-09-08T12:00:09;27.40;61.80
24560;DHT22;12727;49.934;8.656;2023-09-08T12:02:37;27.40;61.60
24560;DHT22;12727;49.934;8.656;2023-09-08T12:05:04;27.20;61.30
24560;DHT22;12727;49.934;8.656;2023-09-08T12:07:29;27.30;61.60
24560;DHT22;12727;49.934;8.656;2023-09-08T12:09:55;27.30;61.50
24560;DHT22;12727;49.934;8.656;2023-09-08T12:12:21;27.40;62.00
24560;DHT22;12727;49.934;8.656;2023-09-08T12:14:46;27.40;61.90
24560;DHT22;12727;49.934;8.656;2023-09-08T12:17:12;27.50;60.90
24560;DHT22;12727;49.934;8.656;2023-09-08T12:19:42;27.60;61.10
24560;DHT22;12727;49.934;8.656;2023-09-08T12:22:08;27.60;60.70
24560;DHT22;12727;49.934;8.656;2023-09-08T12:27:15;27.50;60.60
24560;DHT22;12727;49.934;8.656;2023-09-08T12:29:57;27.40;60.80
24560;DHT22;12727;49.934;8.656;2023-09-08T12:32:24;27.40;61.40
24560;DHT22;12727;49.934;8.656;2023-09-08T12:34:51;27.40;61.30
24560;DHT22;12727;49.934;8.656;2023-09-08T12:37:24;27.50;62.00
24560;DHT22;12727;49.934;8.656;2023-09-08T12:39:50;27.70;61.70
24560;DHT22;12727;49.934;8.656;2023-09-08T12:42:17;27.70;61.50
24560;DHT22;12727;49.934;8.656;2023-09-08T12:44:43;27.60;61.20
24560;DHT22;12727;49.934;8.656;2023-09-08T12:47:10;27.50;61.80
24560;DHT22;12727;49.934;8.656;2023-09-08T12:49:37;27.50;61.40
24560;DHT22;12727;49.934;8.656;2023-09-08T12:52:03;27.70;62.60
24560;DHT22;12727;49.934;8.656;2023-09-08T12:54:29;27.80;61.70
24560;DHT22;12727;49.934;8.656;2023-09-08T12:56:54;27.90;61.60
24560;DHT22;12727;49.934;8.656;2023-09-08T12:59:20;27.80;61.30
24560;DHT22;12727;49.934;8.656;2023-09-08T13:01:45;27.80;61.00
24560;DHT22;12727;49.934;8.656;2023-09-08T13:04:11;27.80;62.10
24560;DHT22;12727;49.934;8.656;2023-09-08T13:06:36;27.90;61.50
24560;DHT22;12727;49.934;8.656;2023-09-08T13:09:02;27.80;60.90
24560;DHT22;12727;49.934;8.656;2023-09-08T13:11:28;27.70;61.20
24560;DHT22;12727;49.934;8.656;2023-09-08T13:13:53;27.90;61.50
24560;DHT22;12727;49.934;8.656;2023-09-08T13:16:19;27.90;61.10
24560;DHT22;12727;49.934;8.656;2023-09-08T13:18:45;28.00;61.20
24560;DHT22;12727;49.934;8.656;2023-09-08T13:21:11;27.90;60.70
24560;DHT22;12727;49.934;8.656;2023-09-08T13:23:37;27.90;60.50
24560;DHT22;12727;49.934;8.656;2023-09-08T13:26:02;27.90;61.00
24560;DHT22;12727;49.934;8.656;2023-09-08T13:28:28;28.10;60.60
24560;DHT22;12727;49.934;8.656;2023-09-08T13:30:53;28.20;60.20
24560;DHT22;12727;49.934;8.656;2023-09-08T13:33:19;28.10;59.70
24560;DHT22;12727;49.934;8.656;2023-09-08T13:35:45;28.20;60.00
24560;DHT22;12727;49.934;8.656;2023-09-08T13:38:10;28.10;60.10
24560;DHT22;12727;49.934;8.656;2023-09-08T13:40:36;28.10;60.20
24560;DHT22;12727;49.934;8.656;2023-09-08T13:43:01;28.10;59.90
24560;DHT22;12727;49.934;8.656;2023-09-08T13:45:28;28.20;60.40
24560;DHT22;12727;49.934;8.656;2023-09-08T13:47:54;28.20;59.80
24560;DHT22;12727;49.934;8.656;2023-09-08T13:50:19;28.20;59.60
24560;DHT22;12727;49.934;8.656;2023-09-08T13:52:45;28.20;59.10
24560;DHT22;12727;49.934;8.656;2023-09-08T13:55:10;28.10;59.30
24560;DHT22;12727;49.934;8.656;2023-09-08T13:57:36;28.20;60.40
24560;DHT22;12727;49.934;8.656;2023-09-08T14:00:02;28.20;60.10
24560;DHT22;12727;49.934;8.656;2023-09-08T14:02:28;28.20;60.20
24560;DHT22;12727;49.934;8.656;2023-09-08T14:04:54;28.30;60.00
24560;DHT22;12727;49.934;8.656;2023-09-08T14:07:19;28.40;59.40
24560;DHT22;12727;49.934;8.656;2023-09-08T14:09:45;28.30;58.90
24560;DHT22;12727;49.934;8.656;2023-09-08T14:12:10;28.30;58.70
24560;DHT22;12727;49.934;8.656;2023-09-08T14:14:36;28.20;59.20
24560;DHT22;12727;49.934;8.656;2023-09-08T14:17:01;28.30;59.30
24560;DHT22;12727;49.934;8.656;2023-09-08T14:19:28;28.20;58.60
24560;DHT22;12727;49.934;8.656;2023-09-08T14:21:54;28.20;58.90
24560;DHT22;12727;49.934;8.656;2023-09-08T14:24:20;28.30;60.00
24560;DHT22;12727;49.934;8.656;2023-09-08T14:26:46;28.40;59.50
24560;DHT22;12727;49.934;8.656;2023-09-08T14:29:11;28.30;59.40
24560;DHT22;12727;49.934;8.656;2023-09-08T14:31:37;28.30;59.50
24560;DHT22;12727;49.934;8.656;2023-09-08T14:34:03;28.20;59.70
24560;DHT22;12727;49.934;8.656;2023-09-08T14:36:29;28.30;60.20
24560;DHT22;12727;49.934;8.656;2023-09-08T14:38:55;28.20;60.60
24560;DHT22;12727;49.934;8.656;2023-09-08T14:41:21;28.30;60.10
24560;DHT22;12727;49.934;8.656;2023-09-08T14:43:46;28.30;60.20
24560;DHT22;12727;49.934;8.656;2023-09-08T14:46:12;28.20;60.50
24560;DHT22;12727;49.934;8.656;2023-09-08T14:48:37;28.30;60.10
24560;DHT22;12727;49.934;8.656;2023-09-08T14:51:03;28.40;60.50
24560;DHT22;12727;49.934;8.656;2023-09-08T14:53:29;28.40;60.40
24560;DHT22;12727;49.934;8.656;2023-09-08T14:56:00;28.30;59.80
24560;DHT22;12727;49.934;8.656;2023-09-08T14:58:25;28.20;60.10
24560;DHT22;12727;49.934;8.656;2023-09-08T15:00:57;28.20;60.00
24560;DHT22;12727;49.934;8.656;2023-09-08T15:03:23;28.20;60.50
24560;DHT22;12727;49.934;8.656;2023-09-08T15:05:48;28.30;61.60
24560;DHT22;12727;49.934;8.656;2023-09-08T15:08:14;28.30;61.00
24560;DHT22;12727;49.934;8.656;2023-09-08T15:10:39;28.30;60.20
24560;DHT22;12727;49.934;8.656;2023-09-08T15:13:05;28.30;60.40
24560;DHT22;12727;49.934;8.656;2023-09-08T15:15:30;28.30;60.20
24560;DHT22;12727;49.934;8.656;2023-09-08T15:17:56;28.30;60.80
24560;DHT22;12727;49.934;8.656;2023-09-08T15:20:22;28.30;60.70
24560;DHT22;12727;49.934;8.656;2023-09-08T15:22:48;28.30;60.70
24560;DHT22;12727;49.934;8.656;2023-09-08T15:25:14;28.30;61.40
24560;DHT22;12727;49.934;8.656;2023-09-08T15:27:40;28.30;61.10
24560;DHT22;12727;49.934;8.656;2023-09-08T15:30:06;28.30;60.80
24560;DHT22;12727;49.934;8.656;2023-09-08T15:32:31;28.30;60.50
24560;DHT22;12727;49.934;8.656;2023-09-08T15:34:57;28.30;61.30